createdAt,value
2019-04-01T00:00:41.660Z,5.71
2019-04-01T00:03:48.901Z,5.58
2019-04-01T00:06:55.855Z,5.47
2019-04-01T00:10:02.694Z,5.44
2019-04-01T00:13:11.455Z,5.37
2019-04-01T00:16:18.325Z,5.44
2019-04-01T00:19:27.283Z,5.38
2019-04-01T00:22:34.116Z,5.30
2019-04-01T00:25:41.037Z,5.42
2019-04-01T00:28:47.972Z,5.13
2019-04-01T00:31:55.096Z,5.20
2019-04-01T00:35:03.112Z,5.12
2019-04-01T00:38:10.103Z,4.94
2019-04-01T00:41:17.029Z,5.12
2019-04-01T00:44:23.968Z,5.12
2019-04-01T00:47:32.683Z,5.01
2019-04-01T00:50:39.561Z,4.96
2019-04-01T00:53:46.407Z,4.96
2019-04-01T00:56:53.290Z,4.96
2019-04-01T01:00:00.465Z,4.88
2019-04-01T01:03:08.477Z,4.48
2019-04-01T01:06:15.508Z,4.80
2019-04-01T01:09:25.033Z,4.82
2019-04-01T01:12:31.488Z,4.76
2019-04-01T01:15:38.706Z,4.69
2019-04-01T01:18:45.600Z,4.64
2019-04-01T01:21:52.502Z,4.55
2019-04-01T01:24:59.366Z,4.62
2019-04-01T01:28:06.467Z,4.50
2019-04-01T01:31:14.995Z,4.52
2019-04-01T01:34:21.874Z,4.40
2019-04-01T01:37:29.854Z,4.52
2019-04-01T01:40:36.745Z,4.38
2019-04-01T01:43:43.584Z,4.40
2019-04-01T01:46:50.566Z,4.44
2019-04-01T01:49:57.414Z,4.32
2019-04-01T01:53:04.288Z,4.24
2019-04-01T01:56:11.118Z,4.16
2019-04-01T01:59:18.147Z,4.24
2019-04-01T02:02:26.295Z,4.20
2019-04-01T02:05:33.166Z,4.25
2019-04-01T02:08:40.005Z,4.22
2019-04-01T02:11:46.886Z,3.98
2019-04-01T02:14:53.844Z,4.10
2019-04-01T02:18:00.707Z,4.03
2019-04-01T02:21:07.553Z,3.67
2019-04-01T02:24:14.435Z,3.74
2019-04-01T02:27:21.311Z,4.01
2019-04-01T02:30:29.119Z,3.91
2019-04-01T02:33:36.163Z,3.95
2019-04-01T02:36:43.040Z,3.42
2019-04-01T02:39:51.230Z,3.64
2019-04-01T02:42:58.376Z,3.55
2019-04-01T02:46:05.210Z,3.66
2019-04-01T02:49:12.082Z,3.45
2019-04-01T02:52:19.005Z,3.17
2019-04-01T02:55:26.521Z,3.12
2019-04-01T02:58:33.371Z,3.38
2019-04-01T03:01:40.258Z,3.22
2019-04-01T03:04:48.165Z,3.40
2019-04-01T03:07:55.028Z,3.30
2019-04-01T03:11:01.869Z,3.11
2019-04-01T03:14:08.749Z,2.68
2019-04-01T03:17:15.584Z,2.80
2019-04-01T03:20:22.691Z,2.73
2019-04-01T03:23:31.058Z,2.48
2019-04-01T03:26:37.926Z,2.84
2019-04-01T03:29:44.780Z,2.85
2019-04-01T03:32:51.713Z,2.96
2019-04-01T03:35:58.740Z,2.73
2019-04-01T03:39:07.136Z,2.50
2019-04-01T03:42:15.140Z,2.62
2019-04-01T03:45:22.419Z,2.21
2019-04-01T03:48:29.440Z,2.72
2019-04-01T03:51:36.342Z,2.57
2019-04-01T03:54:43.183Z,2.49
2019-04-01T03:57:50.068Z,2.74
2019-04-01T04:00:56.896Z,2.33
2019-04-01T04:04:03.773Z,2.41
2019-04-01T04:07:10.732Z,2.58
2019-04-01T04:10:17.746Z,2.39
2019-04-01T04:13:25.402Z,2.13
2019-04-01T04:16:32.359Z,2.32
2019-04-01T04:19:39.200Z,1.96
2019-04-01T04:22:46.083Z,2.22
2019-04-01T04:25:52.918Z,2.27
2019-04-01T04:28:59.809Z,2.42
2019-04-01T04:32:06.733Z,2.05
2019-04-01T04:35:13.730Z,2.22
2019-04-01T04:38:21.191Z,2.13
2019-04-01T04:41:28.451Z,2.25
2019-04-01T04:44:35.520Z,2.20
2019-04-01T04:47:42.398Z,2.04
2019-04-01T04:50:49.331Z,2.24
2019-04-01T04:53:56.207Z,2.21
2019-04-01T04:57:03.543Z,2.35
2019-04-01T05:00:12.150Z,2.35
2019-04-01T05:03:19.007Z,2.07
2019-04-01T05:06:25.885Z,2.29
2019-04-01T05:09:32.726Z,2.46
2019-04-01T05:12:39.605Z,2.65
2019-04-01T05:15:46.537Z,2.49
2019-04-01T05:18:53.488Z,2.35
2019-04-01T05:22:00.755Z,2.42
2019-04-01T05:25:07.936Z,2.24
2019-04-01T05:28:17.299Z,2.13
2019-04-01T05:31:25.631Z,2.22
2019-04-01T05:34:34.159Z,2.55
2019-04-01T05:37:41.143Z,2.70
2019-04-01T05:40:48.650Z,4.33
2019-04-01T05:43:57.973Z,3.07
2019-04-01T05:47:05.577Z,3.19
2019-04-01T05:50:12.459Z,3.04
2019-04-01T05:53:20.333Z,3.35
2019-04-01T05:56:27.204Z,3.36
2019-04-01T05:59:34.083Z,3.39
2019-04-01T06:02:40.984Z,3.49
2019-04-01T06:05:47.955Z,3.50
2019-04-01T06:08:55.720Z,3.60
2019-04-01T06:12:03.168Z,3.73
2019-04-01T06:15:10.153Z,3.75
2019-04-01T06:18:16.993Z,3.87
2019-04-01T06:21:23.902Z,3.89
2019-04-01T06:24:31.549Z,3.98
2019-04-01T06:27:38.470Z,4.17
2019-04-01T06:30:45.762Z,4.31
2019-04-01T06:33:54.275Z,4.42
2019-04-01T06:37:01.174Z,4.44
2019-04-01T06:40:08.453Z,4.65
2019-04-01T06:43:16.392Z,4.78
2019-04-01T06:46:23.279Z,4.88
2019-04-01T06:49:31.375Z,5.01
2019-04-01T06:52:38.343Z,5.14
2019-04-01T06:55:45.654Z,5.25
2019-04-01T06:58:54.159Z,5.28
2019-04-01T07:02:01.003Z,5.35
2019-04-01T07:05:07.987Z,5.50
2019-04-01T07:08:15.143Z,5.61
2019-04-01T07:11:22.143Z,5.71
2019-04-01T07:14:29.104Z,5.86
2019-04-01T07:17:36.069Z,5.89
2019-04-01T07:20:45.567Z,6.04
2019-04-01T07:24:58.308Z,5.96
2019-04-01T07:28:28.236Z,6.10
2019-04-01T07:32:00.811Z,6.58
2019-04-01T07:35:08.454Z,6.54
2019-04-01T07:38:15.519Z,6.78
2019-04-01T07:41:22.383Z,6.89
2019-04-01T07:44:29.620Z,6.90
2019-04-01T07:47:37.545Z,7.13
2019-04-01T07:50:45.591Z,7.16
2019-04-01T07:53:53.049Z,7.18
2019-04-01T07:57:01.247Z,7.18
2019-04-01T08:00:09.345Z,7.42
2019-04-01T08:03:16.240Z,7.52
2019-04-01T08:06:23.151Z,7.54
2019-04-01T08:09:30.693Z,7.52
2019-04-01T08:12:40.411Z,7.59
2019-04-01T08:15:47.311Z,7.89
2019-04-01T08:18:54.141Z,8.12
2019-04-01T08:22:01.055Z,7.81
2019-04-01T08:25:08.027Z,7.87
2019-04-01T08:28:15.026Z,8.09
2019-04-01T08:31:22.503Z,8.16
2019-04-01T08:34:29.383Z,7.98
2019-04-01T08:37:39.861Z,8.13
2019-04-01T08:40:44.850Z,8.39
2019-04-01T08:43:51.999Z,8.39
2019-04-01T08:46:59.210Z,8.41
2019-04-01T08:50:07.391Z,8.41
2019-04-01T08:53:14.689Z,8.59
2019-04-01T08:56:22.668Z,8.76
2019-04-01T08:59:29.681Z,8.86
2019-04-01T09:02:36.644Z,8.82
2019-04-01T09:05:43.596Z,9.15
2019-04-01T09:08:53.276Z,9.29
2019-04-01T09:12:00.553Z,9.62
2019-04-01T09:15:07.755Z,9.53
2019-04-01T09:18:15.024Z,9.41
2019-04-01T09:21:29.784Z,9.66
2019-04-01T09:24:36.666Z,9.96
2019-04-01T09:27:43.536Z,9.93
2019-04-01T09:30:50.532Z,10.08
2019-04-01T09:34:00.536Z,9.50
2019-04-01T09:37:07.609Z,10.02
2019-04-01T09:40:14.680Z,10.21
2019-04-01T09:43:24.796Z,9.70
2019-04-01T09:46:31.663Z,10.13
2019-04-01T09:49:38.551Z,10.45
2019-04-01T09:53:01.470Z,10.86
2019-04-01T09:56:08.683Z,10.24
2019-04-01T09:59:15.566Z,10.51
2019-04-01T10:02:32.124Z,10.77
2019-04-01T10:05:34.657Z,10.79
2019-04-01T10:08:42.916Z,10.91
2019-04-01T10:11:49.880Z,10.80
2019-04-01T10:14:56.788Z,11.08
2019-04-01T10:18:04.699Z,11.20
2019-04-01T10:21:11.592Z,11.07
2019-04-01T10:24:18.638Z,11.14
2019-04-01T10:27:28.256Z,11.43
2019-04-01T10:30:35.098Z,11.24
2019-04-01T10:33:45.886Z,11.30
2019-04-01T10:36:52.978Z,11.50
2019-04-01T10:40:00.415Z,11.49
2019-04-01T10:43:07.678Z,11.90
2019-04-01T10:46:14.658Z,11.63
2019-04-01T10:49:22.777Z,11.66
2019-04-01T10:52:29.735Z,12.02
2019-04-01T10:55:36.727Z,11.32
2019-04-01T10:58:45.131Z,12.29
2019-04-01T11:01:52.197Z,12.13
2019-04-01T11:04:59.159Z,12.31
2019-04-01T11:08:06.057Z,12.64
2019-04-01T11:11:13.009Z,12.21
2019-04-01T11:14:24.339Z,12.62
2019-04-01T11:17:31.238Z,12.17
2019-04-01T11:20:38.090Z,12.54
2019-04-01T11:23:44.996Z,12.88
2019-04-01T11:26:51.859Z,12.89
2019-04-01T11:29:58.817Z,12.51
2019-04-01T11:33:07.709Z,12.70
2019-04-01T11:36:14.352Z,12.94
2019-04-01T11:39:21.872Z,12.91
2019-04-01T11:42:28.911Z,12.95
2019-04-01T11:45:35.806Z,13.01
2019-04-01T11:48:42.751Z,12.90
2019-04-01T11:51:49.763Z,12.44
2019-04-01T11:54:56.806Z,12.62
2019-04-01T11:58:03.895Z,13.19
2019-04-01T12:01:11.915Z,13.05
2019-04-01T12:04:18.764Z,12.82
2019-04-01T12:07:29.153Z,13.45
2019-04-01T12:10:36.187Z,13.36
2019-04-01T12:13:43.363Z,13.17
2019-04-01T12:16:50.224Z,13.14
2019-04-01T12:19:57.112Z,13.54
2019-04-01T12:23:04.034Z,13.11
2019-04-01T12:26:15.428Z,12.56
2019-04-01T12:29:19.746Z,13.11
2019-04-01T12:32:28.407Z,13.23
2019-04-01T12:35:35.349Z,12.69
2019-04-01T12:38:42.235Z,12.64
2019-04-01T12:41:50.170Z,13.04
2019-04-01T12:44:57.086Z,13.25
2019-04-01T12:48:04.007Z,13.24
2019-04-01T12:51:10.904Z,13.12
2019-04-01T12:54:20.316Z,12.46
2019-04-01T12:57:27.238Z,12.77
2019-04-01T13:00:34.748Z,12.92
2019-04-01T13:03:43.004Z,12.88
2019-04-01T13:06:50.828Z,13.86
2019-04-01T13:09:58.520Z,13.71
2019-04-01T13:13:05.402Z,13.69
2019-04-01T13:16:12.306Z,13.59
2019-04-01T13:19:23.903Z,13.83
2019-04-01T13:22:30.880Z,13.86
2019-04-01T13:25:37.723Z,13.56
2019-04-01T13:28:44.709Z,13.01
2019-04-01T13:31:51.696Z,13.70
2019-04-01T13:34:58.572Z,12.91
2019-04-01T13:38:05.451Z,13.22
2019-04-01T13:41:13.192Z,13.24
2019-04-01T13:44:20.596Z,12.89
2019-04-01T13:47:27.592Z,13.54
2019-04-01T13:50:34.631Z,12.88
2019-04-01T13:53:41.542Z,12.78
2019-04-01T13:56:48.394Z,12.59
2019-04-01T14:00:03.044Z,13.04
2019-04-01T14:03:11.333Z,13.00
2019-04-01T14:06:22.565Z,13.01
2019-04-01T14:09:30.952Z,13.03
2019-04-01T14:12:38.085Z,13.21
2019-04-01T14:15:45.014Z,13.81
2019-04-01T14:18:51.900Z,13.94
2019-04-01T14:21:58.787Z,14.27
2019-04-01T14:25:07.981Z,14.22
2019-04-01T14:28:17.935Z,14.20
2019-04-01T14:31:27.759Z,14.30
2019-04-01T14:34:35.521Z,14.41
2019-04-01T14:37:42.853Z,14.64
2019-04-01T14:40:49.806Z,14.22
2019-04-01T14:43:56.677Z,13.72
2019-04-01T14:47:04.099Z,14.41
2019-04-01T14:50:11.824Z,13.95
2019-04-01T14:53:19.527Z,14.09
2019-04-01T14:56:27.796Z,14.08
2019-04-01T14:59:36.158Z,13.92
2019-04-01T15:02:43.083Z,13.12
2019-04-01T15:05:50.017Z,13.88
2019-04-01T15:08:57.228Z,14.17
2019-04-01T15:12:04.084Z,13.70
2019-04-01T15:15:11.764Z,13.93
2019-04-01T15:18:19.824Z,14.06
2019-04-01T15:21:26.717Z,13.95
2019-04-01T15:24:33.559Z,13.64
2019-04-01T15:27:40.443Z,14.19
2019-04-01T15:30:47.490Z,13.80
2019-04-01T15:33:54.524Z,13.54
2019-04-01T15:37:01.536Z,13.69
2019-04-01T15:40:09.126Z,13.70
2019-04-01T15:43:16.456Z,13.31
2019-04-01T15:46:24.963Z,13.32
2019-04-01T15:49:32.064Z,13.28
2019-04-01T15:52:39.032Z,13.34
2019-04-01T15:55:46.024Z,13.33
2019-04-01T15:58:52.903Z,13.04
2019-04-01T16:01:59.833Z,12.95
2019-04-01T16:05:07.185Z,12.76
2019-04-01T16:08:16.924Z,12.64
2019-04-01T16:11:24.910Z,12.59
2019-04-01T16:14:31.932Z,12.34
2019-04-01T16:17:54.092Z,12.29
2019-04-01T16:21:01.120Z,12.24
2019-04-01T16:24:10.948Z,12.29
2019-04-01T16:27:18.623Z,12.02
2019-04-01T16:30:25.555Z,11.93
2019-04-01T16:33:33.016Z,11.90
2019-04-01T16:36:39.912Z,11.78
2019-04-01T16:39:48.688Z,11.62
2019-04-01T16:42:55.868Z,11.46
2019-04-01T16:46:02.877Z,11.42
2019-04-01T16:49:09.771Z,11.34
2019-04-01T16:52:16.824Z,11.25
2019-04-01T16:55:24.931Z,11.16
2019-04-01T16:58:34.812Z,11.16
2019-04-01T17:01:41.834Z,10.95
2019-04-01T17:04:48.856Z,11.06
2019-04-01T17:07:55.758Z,10.85
2019-04-01T17:11:02.854Z,10.79
2019-04-01T17:14:10.046Z,10.65
2019-04-01T17:17:17.826Z,10.49
2019-04-01T17:20:25.427Z,10.27
2019-04-01T17:23:32.419Z,10.54
2019-04-01T17:27:04.072Z,10.34
2019-04-01T17:30:12.335Z,9.95
2019-04-01T17:33:21.006Z,9.88
2019-04-01T17:36:27.849Z,9.90
2019-04-01T17:39:34.854Z,10.01
2019-04-01T17:42:41.704Z,9.47
2019-04-01T17:45:48.592Z,9.02
2019-04-01T17:48:55.422Z,8.94
2019-04-01T17:52:04.458Z,8.38
2019-04-01T17:55:11.525Z,8.70
2019-04-01T17:58:18.613Z,8.63
2019-04-01T18:01:25.706Z,8.38
2019-04-01T18:04:32.807Z,8.37
2019-04-01T18:07:39.673Z,8.40
2019-04-01T18:10:48.801Z,8.19
2019-04-01T18:13:55.140Z,8.32
2019-04-01T18:17:02.609Z,8.61
2019-04-01T18:20:10.213Z,8.44
2019-04-01T18:23:17.226Z,8.31
2019-04-01T18:26:24.183Z,8.54
2019-04-01T18:29:32.093Z,8.17
2019-04-01T18:32:38.957Z,8.24
2019-04-01T18:35:45.848Z,8.30
2019-04-01T18:38:52.653Z,8.27
2019-04-01T18:41:59.519Z,7.95
2019-04-01T18:45:07.460Z,7.64
2019-04-01T18:48:15.054Z,8.10
2019-04-01T18:51:28.932Z,7.83
2019-04-01T18:54:35.807Z,7.80
2019-04-01T18:57:42.840Z,7.97
2019-04-01T19:00:50.486Z,7.81
2019-04-01T19:03:57.330Z,7.75
2019-04-01T19:07:04.834Z,7.88
2019-04-01T19:10:11.901Z,7.86
2019-04-01T19:13:20.049Z,7.75
2019-04-01T19:16:26.887Z,7.66
2019-04-01T19:19:35.060Z,7.44
2019-04-01T19:22:42.011Z,7.78
2019-04-01T19:25:48.930Z,7.53
2019-04-01T19:28:58.184Z,7.54
2019-04-01T19:32:04.397Z,7.46
2019-04-01T19:35:12.099Z,7.33
2019-04-01T19:38:21.516Z,7.42
2019-04-01T19:41:28.655Z,7.25
2019-04-01T19:44:35.554Z,7.25
2019-04-01T19:47:43.462Z,7.37
2019-04-01T19:50:50.341Z,7.39
2019-04-01T19:53:57.215Z,7.16
2019-04-01T19:57:04.201Z,6.98
2019-04-01T20:00:11.341Z,7.17
2019-04-01T20:03:25.373Z,6.63
2019-04-01T20:06:32.479Z,6.86
2019-04-01T20:09:40.526Z,6.95
2019-04-01T20:12:47.374Z,7.01
2019-04-01T20:15:54.285Z,6.43
2019-04-01T20:19:01.128Z,6.72
2019-04-01T20:22:09.281Z,6.23
2019-04-01T20:25:21.686Z,6.52
2019-04-01T20:28:28.675Z,6.66
2019-04-01T20:31:35.524Z,6.63
2019-04-01T20:34:42.421Z,6.50
2019-04-01T20:37:49.335Z,6.09
2019-04-01T20:40:56.208Z,5.92
2019-04-01T20:44:03.068Z,5.74
2019-04-01T20:47:09.971Z,5.85
2019-04-01T20:50:19.814Z,6.13
2019-04-01T20:53:26.841Z,6.39
2019-04-01T20:56:33.685Z,6.53
2019-04-01T20:59:41.108Z,6.61
2019-04-01T21:02:48.520Z,6.60
2019-04-01T21:05:55.678Z,6.54
2019-04-01T21:09:05.834Z,6.59
2019-04-01T21:12:12.692Z,6.53
2019-04-01T21:15:21.636Z,6.40
2019-04-01T21:18:28.517Z,6.54
2019-04-01T21:21:35.371Z,6.44
2019-04-01T21:24:42.415Z,6.48
2019-04-01T21:27:49.350Z,6.53
2019-04-01T21:30:59.407Z,6.45
2019-04-01T21:34:07.844Z,6.56
2019-04-01T21:37:16.608Z,6.27
2019-04-01T21:40:23.484Z,6.36
2019-04-01T21:43:30.386Z,6.49
2019-04-01T21:46:37.218Z,6.31
2019-04-01T21:49:44.087Z,6.47
2019-04-01T21:52:50.936Z,6.15
2019-04-01T21:55:57.893Z,6.23
2019-04-01T21:59:04.724Z,6.17
2019-04-01T22:02:11.599Z,6.20
2019-04-01T22:05:21.421Z,6.24
2019-04-01T22:08:28.413Z,6.33
2019-04-01T22:11:35.347Z,6.27
2019-04-01T22:14:43.945Z,6.17
2019-04-01T22:17:51.402Z,6.19
2019-04-01T22:20:58.829Z,6.15
2019-04-01T22:24:06.337Z,6.08
2019-04-01T22:27:18.285Z,6.16
2019-04-01T22:30:25.177Z,6.05
2019-04-01T22:33:32.043Z,5.95
2019-04-01T22:36:39.899Z,5.85
2019-04-01T22:39:47.135Z,5.86
2019-04-01T22:42:53.978Z,5.95
2019-04-01T22:46:00.901Z,5.71
2019-04-01T22:49:07.751Z,5.62
2019-04-01T22:52:17.675Z,5.62
2019-04-01T22:55:26.149Z,5.57
2019-04-01T22:58:33.027Z,5.93
2019-04-01T23:01:39.884Z,5.75
2019-04-01T23:04:46.757Z,5.69
2019-04-01T23:07:53.593Z,5.55
2019-04-01T23:11:00.533Z,5.75
2019-04-01T23:14:07.454Z,5.83
2019-04-01T23:17:18.801Z,5.12
2019-04-01T23:20:25.698Z,5.24
2019-04-01T23:23:32.566Z,5.18
2019-04-01T23:26:39.407Z,5.00
2019-04-01T23:29:46.853Z,5.14
2019-04-01T23:32:53.698Z,4.64
2019-04-01T23:36:01.626Z,4.08
2019-04-01T23:39:09.690Z,4.27
2019-04-01T23:42:16.663Z,4.46
2019-04-01T23:45:23.513Z,4.32
2019-04-01T23:48:30.394Z,3.83
2019-04-01T23:51:37.224Z,4.16
2019-04-01T23:54:44.292Z,4.22
2019-04-01T23:57:51.143Z,3.92
